sensor_id;sensor_type;location;lat;lon;timestamp;P1;durP1;ratioP1;P2;durP2;ratioP2
60078;SDS011;45951;45.824;8.824;2024-01-25T00:00:04;9.17;;;5.57;;
60078;SDS011;45951;45.824;8.824;2024-01-25T00:01:45;10.82;;;6.00;;
60078;SDS011;45951;45.824;8.824;2024-01-25T00:03:25;8.40;;;5.60;;
60078;SDS011;45951;45.824;8.824;2024-01-25T00:05:05;9.63;;;5.77;;
60078;SDS011;45951;45.824;8.824;2024-01-25T00:06:46;10.80;;;6.15;;
60078;SDS011;45951;45.824;8.824;2024-01-25T00:08:26;9.00;;;5.73;;
60078;SDS011;45951;45.824;8.824;2024-01-25T00:10:07;10.77;;;6.00;;
60078;SDS011;45951;45.824;8.824;2024-01-25T00:11:47;9.15;;;6.07;;
60078;SDS011;45951;45.824;8.824;2024-01-25T00:13:27;9.57;;;5.68;;
60078;SDS011;45951;45.824;8.824;2024-01-25T00:15:08;10.35;;;6.10;;
60078;SDS011;45951;45.824;8.824;2024-01-25T00:16:49;9.82;;;6.38;;
60078;SDS011;45951;45.824;8.824;2024-01-25T00:18:29;9.05;;;5.57;;
60078;SDS011;45951;45.824;8.824;2024-01-25T00:20:10;9.52;;;5.72;;
60078;SDS011;45951;45.824;8.824;2024-01-25T00:21:50;8.77;;;5.82;;
60078;SDS011;45951;45.824;8.824;2024-01-25T00:23:30;9.70;;;6.15;;
60078;SDS011;45951;45.824;8.824;2024-01-25T00:25:10;8.43;;;5.67;;
60078;SDS011;45951;45.824;8.824;2024-01-25T00:26:51;8.63;;;5.60;;
60078;SDS011;45951;45.824;8.824;2024-01-25T00:28:31;9.95;;;5.90;;
60078;SDS011;45951;45.824;8.824;2024-01-25T00:30:13;8.73;;;5.25;;
60078;SDS011;45951;45.824;8.824;2024-01-25T00:31:53;8.13;;;5.53;;
60078;SDS011;45951;45.824;8.824;2024-01-25T00:33:34;9.30;;;5.40;;
60078;SDS011;45951;45.824;8.824;2024-01-25T00:35:14;9.45;;;5.90;;
60078;SDS011;45951;45.824;8.824;2024-01-25T00:36:55;8.57;;;4.93;;
60078;SDS011;45951;45.824;8.824;2024-01-25T00:38:35;8.27;;;5.40;;
60078;SDS011;45951;45.824;8.824;2024-01-25T00:40:15;8.23;;;5.13;;
60078;SDS011;45951;45.824;8.824;2024-01-25T00:41:58;8.32;;;5.30;;
60078;SDS011;45951;45.824;8.824;2024-01-25T00:43:41;9.25;;;5.82;;
60078;SDS011;45951;45.824;8.824;2024-01-25T00:45:22;9.18;;;5.88;;
60078;SDS011;45951;45.824;8.824;2024-01-25T00:47:03;9.98;;;6.38;;
60078;SDS011;45951;45.824;8.824;2024-01-25T00:48:43;9.73;;;5.85;;
60078;SDS011;45951;45.824;8.824;2024-01-25T00:50:24;9.70;;;6.13;;
60078;SDS011;45951;45.824;8.824;2024-01-25T00:52:05;9.85;;;6.18;;
60078;SDS011;45951;45.824;8.824;2024-01-25T00:53:46;10.25;;;6.38;;
60078;SDS011;45951;45.824;8.824;2024-01-25T00:55:26;9.45;;;6.25;;
60078;SDS011;45951;45.824;8.824;2024-01-25T00:57:07;11.02;;;6.53;;
60078;SDS011;45951;45.824;8.824;2024-01-25T00:58:47;10.23;;;6.65;;
60078;SDS011;45951;45.824;8.824;2024-01-25T01:00:28;12.05;;;6.85;;
60078;SDS011;45951;45.824;8.824;2024-01-25T01:02:12;12.02;;;7.18;;
60078;SDS011;45951;45.824;8.824;2024-01-25T01:03:52;12.77;;;6.85;;
60078;SDS011;45951;45.824;8.824;2024-01-25T01:05:35;12.55;;;7.35;;
60078;SDS011;45951;45.824;8.824;2024-01-25T01:07:15;11.40;;;6.93;;
60078;SDS011;45951;45.824;8.824;2024-01-25T01:08:55;10.15;;;6.43;;
60078;SDS011;45951;45.824;8.824;2024-01-25T01:10:36;13.45;;;7.45;;
60078;SDS011;45951;45.824;8.824;2024-01-25T01:12:16;11.00;;;7.07;;
60078;SDS011;45951;45.824;8.824;2024-01-25T01:13:56;12.55;;;7.07;;
60078;SDS011;45951;45.824;8.824;2024-01-25T01:15:37;13.18;;;8.40;;
60078;SDS011;45951;45.824;8.824;2024-01-25T01:17:17;12.07;;;7.20;;
60078;SDS011;45951;45.824;8.824;2024-01-25T01:18:58;14.15;;;7.88;;
60078;SDS011;45951;45.824;8.824;2024-01-25T01:20:47;11.68;;;7.53;;
60078;SDS011;45951;45.824;8.824;2024-01-25T01:22:27;14.30;;;8.38;;
60078;SDS011;45951;45.824;8.824;2024-01-25T01:24:07;13.97;;;8.50;;
60078;SDS011;45951;45.824;8.824;2024-01-25T01:25:47;12.97;;;8.23;;
60078;SDS011;45951;45.824;8.824;2024-01-25T01:27:28;13.73;;;8.50;;
60078;SDS011;45951;45.824;8.824;2024-01-25T01:29:08;13.13;;;8.70;;
60078;SDS011;45951;45.824;8.824;2024-01-25T01:30:48;15.15;;;9.32;;
60078;SDS011;45951;45.824;8.824;2024-01-25T01:32:28;15.55;;;8.90;;
60078;SDS011;45951;45.824;8.824;2024-01-25T01:34:08;15.70;;;8.60;;
60078;SDS011;45951;45.824;8.824;2024-01-25T01:35:49;15.73;;;8.37;;
60078;SDS011;45951;45.824;8.824;2024-01-25T01:37:29;13.73;;;8.25;;
60078;SDS011;45951;45.824;8.824;2024-01-25T01:39:09;14.85;;;9.07;;
60078;SDS011;45951;45.824;8.824;2024-01-25T01:40:49;12.65;;;8.65;;
60078;SDS011;45951;45.824;8.824;2024-01-25T01:42:30;16.10;;;9.53;;
60078;SDS011;45951;45.824;8.824;2024-01-25T01:44:11;13.98;;;8.93;;
60078;SDS011;45951;45.824;8.824;2024-01-25T01:45:51;13.45;;;8.25;;
60078;SDS011;45951;45.824;8.824;2024-01-25T01:47:31;12.23;;;7.90;;
60078;SDS011;45951;45.824;8.824;2024-01-25T01:49:12;13.40;;;8.63;;
60078;SDS011;45951;45.824;8.824;2024-01-25T01:50:52;15.23;;;8.25;;
60078;SDS011;45951;45.824;8.824;2024-01-25T01:52:32;14.73;;;9.23;;
60078;SDS011;45951;45.824;8.824;2024-01-25T01:54:12;13.50;;;9.07;;
60078;SDS011;45951;45.824;8.824;2024-01-25T01:55:53;13.77;;;8.80;;
60078;SDS011;45951;45.824;8.824;2024-01-25T01:57:34;15.90;;;8.88;;
60078;SDS011;45951;45.824;8.824;2024-01-25T01:59:14;14.20;;;8.60;;
60078;SDS011;45951;45.824;8.824;2024-01-25T02:00:55;13.52;;;8.73;;
60078;SDS011;45951;45.824;8.824;2024-01-25T02:02:35;13.82;;;9.82;;
60078;SDS011;45951;45.824;8.824;2024-01-25T02:04:15;13.60;;;8.82;;
60078;SDS011;45951;45.824;8.824;2024-01-25T02:05:56;15.27;;;8.97;;
60078;SDS011;45951;45.824;8.824;2024-01-25T02:07:42;13.27;;;8.60;;
60078;SDS011;45951;45.824;8.824;2024-01-25T02:09:22;13.63;;;8.77;;
60078;SDS011;45951;45.824;8.824;2024-01-25T02:11:02;13.68;;;8.55;;
60078;SDS011;45951;45.824;8.824;2024-01-25T02:12:42;14.25;;;8.25;;
60078;SDS011;45951;45.824;8.824;2024-01-25T02:14:23;13.47;;;8.73;;
60078;SDS011;45951;45.824;8.824;2024-01-25T02:16:03;12.70;;;8.17;;
60078;SDS011;45951;45.824;8.824;2024-01-25T02:17:43;13.77;;;8.52;;
60078;SDS011;45951;45.824;8.824;2024-01-25T02:19:23;13.53;;;8.50;;
60078;SDS011;45951;45.824;8.824;2024-01-25T02:21:04;12.43;;;7.38;;
60078;SDS011;45951;45.824;8.824;2024-01-25T02:22:44;13.50;;;8.48;;
60078;SDS011;45951;45.824;8.824;2024-01-25T02:24:24;12.70;;;8.00;;
60078;SDS011;45951;45.824;8.824;2024-01-25T02:26:05;13.55;;;7.47;;
60078;SDS011;45951;45.824;8.824;2024-01-25T02:27:45;15.07;;;9.27;;
60078;SDS011;45951;45.824;8.824;2024-01-25T02:29:25;12.47;;;8.30;;
60078;SDS011;45951;45.824;8.824;2024-01-25T02:31:05;14.77;;;8.87;;
60078;SDS011;45951;45.824;8.824;2024-01-25T02:32:45;13.32;;;8.73;;
60078;SDS011;45951;45.824;8.824;2024-01-25T02:34:26;15.47;;;9.53;;
60078;SDS011;45951;45.824;8.824;2024-01-25T02:36:06;15.03;;;8.90;;
60078;SDS011;45951;45.824;8.824;2024-01-25T02:37:46;16.20;;;8.77;;
60078;SDS011;45951;45.824;8.824;2024-01-25T02:39:27;14.38;;;8.35;;
60078;SDS011;45951;45.824;8.824;2024-01-25T02:41:07;12.60;;;7.73;;
60078;SDS011;45951;45.824;8.824;2024-01-25T02:42:47;12.55;;;8.70;;
60078;SDS011;45951;45.824;8.824;2024-01-25T02:44:28;15.77;;;9.82;;
60078;SDS011;45951;45.824;8.824;2024-01-25T02:46:08;14.40;;;8.88;;
60078;SDS011;45951;45.824;8.824;2024-01-25T02:47:48;15.35;;;8.75;;
60078;SDS011;45951;45.824;8.824;2024-01-25T02:49:29;12.60;;;8.52;;
60078;SDS011;45951;45.824;8.824;2024-01-25T02:51:09;16.55;;;8.88;;
60078;SDS011;45951;45.824;8.824;2024-01-25T02:52:49;15.40;;;9.47;;
60078;SDS011;45951;45.824;8.824;2024-01-25T02:54:29;13.80;;;8.93;;
60078;SDS011;45951;45.824;8.824;2024-01-25T02:56:09;15.43;;;9.43;;
60078;SDS011;45951;45.824;8.824;2024-01-25T02:57:50;13.40;;;8.80;;
60078;SDS011;45951;45.824;8.824;2024-01-25T02:59:30;13.27;;;8.53;;
60078;SDS011;45951;45.824;8.824;2024-01-25T03:01:10;14.60;;;8.73;;
60078;SDS011;45951;45.824;8.824;2024-01-25T03:02:50;11.87;;;7.73;;
60078;SDS011;45951;45.824;8.824;2024-01-25T03:04:31;13.05;;;8.60;;
60078;SDS011;45951;45.824;8.824;2024-01-25T03:06:11;13.33;;;9.00;;
60078;SDS011;45951;45.824;8.824;2024-01-25T03:07:51;17.67;;;10.20;;
60078;SDS011;45951;45.824;8.824;2024-01-25T03:09:31;15.77;;;9.88;;
60078;SDS011;45951;45.824;8.824;2024-01-25T03:11:11;15.13;;;10.30;;
60078;SDS011;45951;45.824;8.824;2024-01-25T03:12:51;14.63;;;9.33;;
60078;SDS011;45951;45.824;8.824;2024-01-25T03:14:32;14.23;;;9.55;;
60078;SDS011;45951;45.824;8.824;2024-01-25T03:16:12;13.98;;;8.85;;
60078;SDS011;45951;45.824;8.824;2024-01-25T03:17:52;15.20;;;9.17;;
60078;SDS011;45951;45.824;8.824;2024-01-25T03:19:32;15.17;;;8.90;;
60078;SDS011;45951;45.824;8.824;2024-01-25T03:21:12;16.87;;;10.17;;
60078;SDS011;45951;45.824;8.824;2024-01-25T03:22:53;17.52;;;11.10;;
60078;SDS011;45951;45.824;8.824;2024-01-25T03:24:37;16.33;;;10.40;;
60078;SDS011;45951;45.824;8.824;2024-01-25T03:26:17;16.88;;;9.43;;
60078;SDS011;45951;45.824;8.824;2024-01-25T03:27:57;13.27;;;9.25;;
60078;SDS011;45951;45.824;8.824;2024-01-25T03:29:40;16.55;;;10.05;;
60078;SDS011;45951;45.824;8.824;2024-01-25T03:31:20;17.35;;;11.10;;
60078;SDS011;45951;45.824;8.824;2024-01-25T03:33:00;14.70;;;10.17;;
60078;SDS011;45951;45.824;8.824;2024-01-25T03:34:41;16.35;;;10.98;;
60078;SDS011;45951;45.824;8.824;2024-01-25T03:36:21;18.08;;;11.80;;
60078;SDS011;45951;45.824;8.824;2024-01-25T03:38:01;16.67;;;11.30;;
60078;SDS011;45951;45.824;8.824;2024-01-25T03:39:41;15.80;;;10.13;;
60078;SDS011;45951;45.824;8.824;2024-01-25T03:41:22;16.88;;;10.73;;
60078;SDS011;45951;45.824;8.824;2024-01-25T03:43:03;17.27;;;10.50;;
60078;SDS011;45951;45.824;8.824;2024-01-25T03:44:43;17.63;;;11.18;;
60078;SDS011;45951;45.824;8.824;2024-01-25T03:46:24;16.65;;;10.88;;
60078;SDS011;45951;45.824;8.824;2024-01-25T03:48:05;16.73;;;11.63;;
60078;SDS011;45951;45.824;8.824;2024-01-25T03:49:45;16.50;;;11.73;;
60078;SDS011;45951;45.824;8.824;2024-01-25T03:51:25;16.45;;;11.40;;
60078;SDS011;45951;45.824;8.824;2024-01-25T03:53:06;16.33;;;11.63;;
60078;SDS011;45951;45.824;8.824;2024-01-25T03:54:46;18.33;;;12.10;;
60078;SDS011;45951;45.824;8.824;2024-01-25T03:56:26;15.32;;;11.15;;
60078;SDS011;45951;45.824;8.824;2024-01-25T03:58:07;18.92;;;13.02;;
60078;SDS011;45951;45.824;8.824;2024-01-25T03:59:48;17.85;;;11.75;;
60078;SDS011;45951;45.824;8.824;2024-01-25T04:01:28;19.35;;;12.25;;
60078;SDS011;45951;45.824;8.824;2024-01-25T04:03:09;18.43;;;12.77;;
60078;SDS011;45951;45.824;8.824;2024-01-25T04:04:50;16.90;;;12.48;;
60078;SDS011;45951;45.824;8.824;2024-01-25T04:06:30;18.92;;;12.40;;
60078;SDS011;45951;45.824;8.824;2024-01-25T04:08:10;18.10;;;11.97;;
60078;SDS011;45951;45.824;8.824;2024-01-25T04:09:50;19.70;;;12.93;;
60078;SDS011;45951;45.824;8.824;2024-01-25T04:11:30;17.10;;;12.37;;
60078;SDS011;45951;45.824;8.824;2024-01-25T04:13:11;16.33;;;11.75;;
60078;SDS011;45951;45.824;8.824;2024-01-25T04:14:51;18.03;;;11.97;;
60078;SDS011;45951;45.824;8.824;2024-01-25T04:16:32;17.17;;;11.90;;
60078;SDS011;45951;45.824;8.824;2024-01-25T04:18:12;17.80;;;11.85;;
60078;SDS011;45951;45.824;8.824;2024-01-25T04:19:52;16.90;;;11.47;;
60078;SDS011;45951;45.824;8.824;2024-01-25T04:21:32;15.45;;;11.13;;
60078;SDS011;45951;45.824;8.824;2024-01-25T04:23:13;13.80;;;9.53;;
60078;SDS011;45951;45.824;8.824;2024-01-25T04:24:53;12.00;;;8.73;;
60078;SDS011;45951;45.824;8.824;2024-01-25T04:26:33;15.98;;;10.10;;
60078;SDS011;45951;45.824;8.824;2024-01-25T04:28:13;14.93;;;9.90;;
60078;SDS011;45951;45.824;8.824;2024-01-25T04:29:54;13.70;;;9.00;;
60078;SDS011;45951;45.824;8.824;2024-01-25T04:31:34;11.00;;;6.87;;
60078;SDS011;45951;45.824;8.824;2024-01-25T04:33:14;12.77;;;7.83;;
60078;SDS011;45951;45.824;8.824;2024-01-25T04:34:54;12.00;;;8.30;;
60078;SDS011;45951;45.824;8.824;2024-01-25T04:36:34;10.70;;;7.43;;
60078;SDS011;45951;45.824;8.824;2024-01-25T04:38:15;11.60;;;7.37;;
60078;SDS011;45951;45.824;8.824;2024-01-25T04:39:55;10.30;;;6.75;;
60078;SDS011;45951;45.824;8.824;2024-01-25T04:41:35;12.68;;;7.78;;
60078;SDS011;45951;45.824;8.824;2024-01-25T04:43:16;11.82;;;7.68;;
60078;SDS011;45951;45.824;8.824;2024-01-25T04:44:56;11.00;;;7.85;;
60078;SDS011;45951;45.824;8.824;2024-01-25T04:46:36;12.15;;;7.65;;
60078;SDS011;45951;45.824;8.824;2024-01-25T04:48:17;11.35;;;7.55;;
60078;SDS011;45951;45.824;8.824;2024-01-25T04:49:57;10.27;;;6.73;;
60078;SDS011;45951;45.824;8.824;2024-01-25T04:51:38;10.88;;;7.30;;
60078;SDS011;45951;45.824;8.824;2024-01-25T04:53:18;11.45;;;7.85;;
60078;SDS011;45951;45.824;8.824;2024-01-25T04:54:58;10.85;;;7.38;;
60078;SDS011;45951;45.824;8.824;2024-01-25T04:56:38;12.15;;;7.18;;
60078;SDS011;45951;45.824;8.824;2024-01-25T04:58:18;8.87;;;6.40;;
60078;SDS011;45951;45.824;8.824;2024-01-25T04:59:59;10.37;;;6.17;;
60078;SDS011;45951;45.824;8.824;2024-01-25T05:01:39;7.97;;;5.00;;
60078;SDS011;45951;45.824;8.824;2024-01-25T05:03:19;7.87;;;4.90;;
60078;SDS011;45951;45.824;8.824;2024-01-25T05:05:00;6.90;;;3.90;;
60078;SDS011;45951;45.824;8.824;2024-01-25T05:06:40;5.63;;;3.67;;
60078;SDS011;45951;45.824;8.824;2024-01-25T05:08:20;6.03;;;3.17;;
60078;SDS011;45951;45.824;8.824;2024-01-25T05:10:00;3.55;;;2.25;;
60078;SDS011;45951;45.824;8.824;2024-01-25T05:11:40;5.20;;;3.07;;
60078;SDS011;45951;45.824;8.824;2024-01-25T05:13:21;5.13;;;2.40;;
60078;SDS011;45951;45.824;8.824;2024-01-25T05:15:01;3.43;;;2.07;;
60078;SDS011;45951;45.824;8.824;2024-01-25T05:16:41;3.20;;;1.70;;
60078;SDS011;45951;45.824;8.824;2024-01-25T05:18:21;3.43;;;1.90;;
60078;SDS011;45951;45.824;8.824;2024-01-25T05:20:01;2.10;;;1.37;;
60078;SDS011;45951;45.824;8.824;2024-01-25T05:21:42;1.15;;;0.95;;
60078;SDS011;45951;45.824;8.824;2024-01-25T05:23:23;0.70;;;0.70;;
60078;SDS011;45951;45.824;8.824;2024-01-25T05:25:03;0.82;;;0.68;;
60078;SDS011;45951;45.824;8.824;2024-01-25T05:26:44;1.88;;;0.80;;
60078;SDS011;45951;45.824;8.824;2024-01-25T05:28:24;2.47;;;1.30;;
60078;SDS011;45951;45.824;8.824;2024-01-25T05:30:05;1.90;;;1.27;;
60078;SDS011;45951;45.824;8.824;2024-01-25T05:31:45;1.23;;;1.10;;
60078;SDS011;45951;45.824;8.824;2024-01-25T05:33:25;1.80;;;1.00;;
60078;SDS011;45951;45.824;8.824;2024-01-25T05:35:06;1.30;;;1.20;;
60078;SDS011;45951;45.824;8.824;2024-01-25T05:36:47;1.23;;;0.90;;
60078;SDS011;45951;45.824;8.824;2024-01-25T05:38:27;0.95;;;0.77;;
60078;SDS011;45951;45.824;8.824;2024-01-25T05:40:07;0.70;;;0.70;;
60078;SDS011;45951;45.824;8.824;2024-01-25T05:41:49;1.30;;;0.85;;
60078;SDS011;45951;45.824;8.824;2024-01-25T05:43:29;1.13;;;1.02;;
60078;SDS011;45951;45.824;8.824;2024-01-25T05:45:09;1.48;;;0.90;;
60078;SDS011;45951;45.824;8.824;2024-01-25T05:46:50;1.50;;;1.15;;
60078;SDS011;45951;45.824;8.824;2024-01-25T05:48:30;1.30;;;0.90;;
60078;SDS011;45951;45.824;8.824;2024-01-25T05:50:10;2.30;;;1.02;;
60078;SDS011;45951;45.824;8.824;2024-01-25T05:51:50;0.82;;;0.82;;
60078;SDS011;45951;45.824;8.824;2024-01-25T05:53:30;3.00;;;1.47;;
60078;SDS011;45951;45.824;8.824;2024-01-25T05:55:11;3.10;;;2.00;;
60078;SDS011;45951;45.824;8.824;2024-01-25T05:56:51;2.78;;;1.98;;
60078;SDS011;45951;45.824;8.824;2024-01-25T05:58:31;1.63;;;1.40;;
60078;SDS011;45951;45.824;8.824;2024-01-25T06:00:12;2.22;;;0.70;;
60078;SDS011;45951;45.824;8.824;2024-01-25T06:01:53;0.90;;;0.60;;
60078;SDS011;45951;45.824;8.824;2024-01-25T06:03:33;1.00;;;0.90;;
60078;SDS011;45951;45.824;8.824;2024-01-25T06:05:13;1.33;;;1.00;;
60078;SDS011;45951;45.824;8.824;2024-01-25T06:06:53;0.75;;;0.47;;
60078;SDS011;45951;45.824;8.824;2024-01-25T06:08:34;2.42;;;1.05;;
60078;SDS011;45951;45.824;8.824;2024-01-25T06:10:15;1.48;;;0.98;;
60078;SDS011;45951;45.824;8.824;2024-01-25T06:11:55;0.93;;;0.80;;
60078;SDS011;45951;45.824;8.824;2024-01-25T06:13:35;1.15;;;1.02;;
60078;SDS011;45951;45.824;8.824;2024-01-25T06:15:15;1.03;;;0.80;;
60078;SDS011;45951;45.824;8.824;2024-01-25T06:16:55;3.55;;;1.50;;
60078;SDS011;45951;45.824;8.824;2024-01-25T06:18:36;2.17;;;1.05;;
60078;SDS011;45951;45.824;8.824;2024-01-25T06:20:16;3.40;;;1.20;;
60078;SDS011;45951;45.824;8.824;2024-01-25T06:21:56;2.33;;;1.23;;
60078;SDS011;45951;45.824;8.824;2024-01-25T06:23:37;3.57;;;1.37;;
60078;SDS011;45951;45.824;8.824;2024-01-25T06:25:17;3.90;;;1.23;;
60078;SDS011;45951;45.824;8.824;2024-01-25T06:26:57;2.70;;;1.40;;
60078;SDS011;45951;45.824;8.824;2024-01-25T06:28:37;4.05;;;1.27;;
60078;SDS011;45951;45.824;8.824;2024-01-25T06:30:17;3.87;;;1.17;;
60078;SDS011;45951;45.824;8.824;2024-01-25T06:31:59;1.95;;;0.90;;
60078;SDS011;45951;45.824;8.824;2024-01-25T06:33:40;4.90;;;1.00;;
60078;SDS011;45951;45.824;8.824;2024-01-25T06:35:20;3.93;;;1.33;;
60078;SDS011;45951;45.824;8.824;2024-01-25T06:37:00;4.35;;;1.98;;
60078;SDS011;45951;45.824;8.824;2024-01-25T06:38:40;4.30;;;1.20;;
60078;SDS011;45951;45.824;8.824;2024-01-25T06:40:20;2.28;;;1.20;;
60078;SDS011;45951;45.824;8.824;2024-01-25T06:42:01;3.40;;;1.97;;
60078;SDS011;45951;45.824;8.824;2024-01-25T06:43:41;3.70;;;1.80;;
60078;SDS011;45951;45.824;8.824;2024-01-25T06:45:21;2.65;;;1.40;;
60078;SDS011;45951;45.824;8.824;2024-01-25T06:47:01;2.92;;;1.35;;
60078;SDS011;45951;45.824;8.824;2024-01-25T06:48:41;2.42;;;1.42;;
60078;SDS011;45951;45.824;8.824;2024-01-25T06:50:22;2.33;;;1.20;;
60078;SDS011;45951;45.824;8.824;2024-01-25T06:52:02;1.30;;;1.05;;
60078;SDS011;45951;45.824;8.824;2024-01-25T06:53:43;1.65;;;1.00;;
60078;SDS011;45951;45.824;8.824;2024-01-25T06:55:23;1.30;;;1.10;;
60078;SDS011;45951;45.824;8.824;2024-01-25T06:57:03;2.20;;;1.40;;
60078;SDS011;45951;45.824;8.824;2024-01-25T06:58:44;3.92;;;2.25;;
60078;SDS011;45951;45.824;8.824;2024-01-25T07:00:24;4.03;;;2.40;;
60078;SDS011;45951;45.824;8.824;2024-01-25T07:02:04;4.00;;;2.20;;
60078;SDS011;45951;45.824;8.824;2024-01-25T07:03:45;5.15;;;2.90;;
60078;SDS011;45951;45.824;8.824;2024-01-25T07:05:25;3.87;;;2.60;;
60078;SDS011;45951;45.824;8.824;2024-01-25T07:07:06;3.15;;;1.80;;
60078;SDS011;45951;45.824;8.824;2024-01-25T07:08:46;4.03;;;2.40;;
60078;SDS011;45951;45.824;8.824;2024-01-25T07:10:27;5.55;;;2.72;;
60078;SDS011;45951;45.824;8.824;2024-01-25T07:12:07;4.25;;;2.70;;
60078;SDS011;45951;45.824;8.824;2024-01-25T07:13:47;7.43;;;3.33;;
60078;SDS011;45951;45.824;8.824;2024-01-25T07:15:28;5.82;;;3.20;;
60078;SDS011;45951;45.824;8.824;2024-01-25T07:17:08;4.30;;;2.70;;
60078;SDS011;45951;45.824;8.824;2024-01-25T07:18:48;5.30;;;3.10;;
60078;SDS011;45951;45.824;8.824;2024-01-25T07:20:28;5.75;;;2.72;;
60078;SDS011;45951;45.824;8.824;2024-01-25T07:22:08;5.70;;;2.90;;
60078;SDS011;45951;45.824;8.824;2024-01-25T07:23:49;8.68;;;3.08;;
60078;SDS011;45951;45.824;8.824;2024-01-25T07:25:29;7.65;;;2.50;;
60078;SDS011;45951;45.824;8.824;2024-01-25T07:27:09;5.83;;;2.67;;
60078;SDS011;45951;45.824;8.824;2024-01-25T07:28:52;7.70;;;3.00;;
60078;SDS011;45951;45.824;8.824;2024-01-25T07:30:37;8.43;;;2.90;;
60078;SDS011;45951;45.824;8.824;2024-01-25T07:32:18;7.27;;;2.13;;
60078;SDS011;45951;45.824;8.824;2024-01-25T07:33:58;12.25;;;2.70;;
60078;SDS011;45951;45.824;8.824;2024-01-25T07:35:39;5.50;;;2.10;;
60078;SDS011;45951;45.824;8.824;2024-01-25T07:37:25;5.03;;;2.00;;
60078;SDS011;45951;45.824;8.824;2024-01-25T07:39:05;4.03;;;1.90;;
60078;SDS011;45951;45.824;8.824;2024-01-25T07:40:45;6.18;;;2.25;;
60078;SDS011;45951;45.824;8.824;2024-01-25T07:42:26;4.28;;;1.75;;
60078;SDS011;45951;45.824;8.824;2024-01-25T07:44:06;5.82;;;2.08;;
60078;SDS011;45951;45.824;8.824;2024-01-25T07:45:46;7.78;;;2.90;;
60078;SDS011;45951;45.824;8.824;2024-01-25T07:47:26;19.80;;;3.13;;
60078;SDS011;45951;45.824;8.824;2024-01-25T07:49:07;13.52;;;2.50;;
60078;SDS011;45951;45.824;8.824;2024-01-25T07:50:47;6.60;;;2.40;;
60078;SDS011;45951;45.824;8.824;2024-01-25T07:52:27;5.45;;;1.92;;
60078;SDS011;45951;45.824;8.824;2024-01-25T07:54:07;4.87;;;2.20;;
60078;SDS011;45951;45.824;8.824;2024-01-25T07:55:48;7.20;;;3.60;;
60078;SDS011;45951;45.824;8.824;2024-01-25T07:57:28;9.15;;;3.90;;
60078;SDS011;45951;45.824;8.824;2024-01-25T07:59:08;8.57;;;4.13;;
60078;SDS011;45951;45.824;8.824;2024-01-25T08:00:48;8.35;;;4.07;;
60078;SDS011;45951;45.824;8.824;2024-01-25T08:02:28;9.15;;;3.20;;
60078;SDS011;45951;45.824;8.824;2024-01-25T08:04:09;12.30;;;3.63;;
60078;SDS011;45951;45.824;8.824;2024-01-25T08:05:49;13.73;;;3.60;;
60078;SDS011;45951;45.824;8.824;2024-01-25T08:07:29;12.40;;;5.03;;
60078;SDS011;45951;45.824;8.824;2024-01-25T08:09:09;8.55;;;5.10;;
60078;SDS011;45951;45.824;8.824;2024-01-25T08:10:50;9.02;;;5.38;;
60078;SDS011;45951;45.824;8.824;2024-01-25T08:12:30;9.57;;;5.00;;
60078;SDS011;45951;45.824;8.824;2024-01-25T08:14:10;14.70;;;6.60;;
60078;SDS011;45951;45.824;8.824;2024-01-25T08:15:54;10.40;;;5.18;;
60078;SDS011;45951;45.824;8.824;2024-01-25T08:17:34;11.27;;;5.90;;
60078;SDS011;45951;45.824;8.824;2024-01-25T08:19:16;10.48;;;5.57;;
60078;SDS011;45951;45.824;8.824;2024-01-25T08:20:56;10.25;;;6.97;;
60078;SDS011;45951;45.824;8.824;2024-01-25T08:22:36;11.75;;;6.97;;
60078;SDS011;45951;45.824;8.824;2024-01-25T08:24:17;9.95;;;6.18;;
60078;SDS011;45951;45.824;8.824;2024-01-25T08:25:58;11.07;;;6.20;;
60078;SDS011;45951;45.824;8.824;2024-01-25T08:27:38;10.63;;;6.97;;
60078;SDS011;45951;45.824;8.824;2024-01-25T08:29:18;14.13;;;9.57;;
60078;SDS011;45951;45.824;8.824;2024-01-25T08:30:58;11.38;;;7.85;;
60078;SDS011;45951;45.824;8.824;2024-01-25T08:32:38;11.60;;;8.10;;
60078;SDS011;45951;45.824;8.824;2024-01-25T08:34:19;9.80;;;8.00;;
60078;SDS011;45951;45.824;8.824;2024-01-25T08:36:01;10.52;;;7.82;;
60078;SDS011;45951;45.824;8.824;2024-01-25T08:37:42;9.98;;;7.45;;
60078;SDS011;45951;45.824;8.824;2024-01-25T08:39:22;10.93;;;8.23;;
60078;SDS011;45951;45.824;8.824;2024-01-25T08:41:03;12.00;;;8.57;;
60078;SDS011;45951;45.824;8.824;2024-01-25T08:42:44;11.75;;;8.68;;
60078;SDS011;45951;45.824;8.824;2024-01-25T08:44:24;11.33;;;9.00;;
60078;SDS011;45951;45.824;8.824;2024-01-25T08:46:04;13.02;;;8.98;;
60078;SDS011;45951;45.824;8.824;2024-01-25T08:47:46;12.88;;;8.85;;
60078;SDS011;45951;45.824;8.824;2024-01-25T08:49:27;12.48;;;8.50;;
60078;SDS011;45951;45.824;8.824;2024-01-25T08:51:07;11.93;;;8.90;;
60078;SDS011;45951;45.824;8.824;2024-01-25T08:52:48;12.82;;;9.70;;
60078;SDS011;45951;45.824;8.824;2024-01-25T08:54:29;14.95;;;10.45;;
60078;SDS011;45951;45.824;8.824;2024-01-25T08:56:09;13.57;;;9.80;;
60078;SDS011;45951;45.824;8.824;2024-01-25T08:57:49;12.65;;;9.05;;
60078;SDS011;45951;45.824;8.824;2024-01-25T08:59:31;13.55;;;9.05;;
60078;SDS011;45951;45.824;8.824;2024-01-25T09:01:12;14.75;;;9.90;;
60078;SDS011;45951;45.824;8.824;2024-01-25T09:02:53;11.80;;;9.30;;
60078;SDS011;45951;45.824;8.824;2024-01-25T09:04:33;12.52;;;9.20;;
60078;SDS011;45951;45.824;8.824;2024-01-25T09:06:13;12.63;;;9.65;;
60078;SDS011;45951;45.824;8.824;2024-01-25T09:07:55;13.73;;;9.88;;
60078;SDS011;45951;45.824;8.824;2024-01-25T09:09:35;12.23;;;9.70;;
60078;SDS011;45951;45.824;8.824;2024-01-25T09:11:15;15.37;;;10.47;;
60078;SDS011;45951;45.824;8.824;2024-01-25T09:12:55;14.10;;;9.85;;
60078;SDS011;45951;45.824;8.824;2024-01-25T09:14:36;14.27;;;9.13;;
60078;SDS011;45951;45.824;8.824;2024-01-25T09:16:16;15.82;;;10.18;;
60078;SDS011;45951;45.824;8.824;2024-01-25T09:17:56;13.57;;;9.10;;
60078;SDS011;45951;45.824;8.824;2024-01-25T09:19:37;15.90;;;10.77;;
60078;SDS011;45951;45.824;8.824;2024-01-25T09:21:17;14.77;;;10.35;;
60078;SDS011;45951;45.824;8.824;2024-01-25T09:22:57;14.47;;;9.60;;
60078;SDS011;45951;45.824;8.824;2024-01-25T09:24:37;14.47;;;11.43;;
60078;SDS011;45951;45.824;8.824;2024-01-25T09:26:20;13.98;;;10.57;;
60078;SDS011;45951;45.824;8.824;2024-01-25T09:28:00;14.23;;;9.73;;
60078;SDS011;45951;45.824;8.824;2024-01-25T09:29:41;11.68;;;10.23;;
60078;SDS011;45951;45.824;8.824;2024-01-25T09:31:21;15.07;;;11.30;;
60078;SDS011;45951;45.824;8.824;2024-01-25T09:33:02;14.97;;;11.63;;
60078;SDS011;45951;45.824;8.824;2024-01-25T09:34:42;13.35;;;11.43;;
60078;SDS011;45951;45.824;8.824;2024-01-25T09:36:22;15.05;;;12.00;;
60078;SDS011;45951;45.824;8.824;2024-01-25T09:38:02;16.03;;;12.37;;
60078;SDS011;45951;45.824;8.824;2024-01-25T09:39:42;15.25;;;11.02;;
60078;SDS011;45951;45.824;8.824;2024-01-25T09:41:23;14.87;;;12.53;;
60078;SDS011;45951;45.824;8.824;2024-01-25T09:43:03;15.55;;;12.57;;
60078;SDS011;45951;45.824;8.824;2024-01-25T09:44:44;15.48;;;13.15;;
60078;SDS011;45951;45.824;8.824;2024-01-25T09:46:24;17.05;;;12.63;;
60078;SDS011;45951;45.824;8.824;2024-01-25T09:48:04;17.88;;;14.20;;
60078;SDS011;45951;45.824;8.824;2024-01-25T09:49:45;17.27;;;13.50;;
60078;SDS011;45951;45.824;8.824;2024-01-25T09:51:25;18.58;;;14.02;;
60078;SDS011;45951;45.824;8.824;2024-01-25T09:53:06;18.10;;;12.77;;
60078;SDS011;45951;45.824;8.824;2024-01-25T09:54:46;15.52;;;13.23;;
60078;SDS011;45951;45.824;8.824;2024-01-25T09:56:27;16.75;;;13.27;;
60078;SDS011;45951;45.824;8.824;2024-01-25T09:58:11;15.63;;;12.43;;